sensor_id;sensor_type;location;lat;lon;timestamp;temperature;humidity
16392;DHT22;8305;-33.882;151.134;2023-08-01T00:01:06;15.80;99.90
16392;DHT22;8305;-33.882;151.134;2023-08-01T00:03:37;15.90;99.90
16392;DHT22;8305;-33.882;151.134;2023-08-01T00:06:08;16.00;99.90
16392;DHT22;8305;-33.882;151.134;2023-08-01T00:08:39;16.20;99.90
16392;DHT22;8305;-33.882;151.134;2023-08-01T00:11:10;16.20;99.90
16392;DHT22;8305;-33.882;151.134;2023-08-01T00:13:44;16.40;99.90
16392;DHT22;8305;-33.882;151.134;2023-08-01T00:16:15;16.60;99.90
16392;DHT22;8305;-33.882;151.134;2023-08-01T00:18:46;16.60;99.90
16392;DHT22;8305;-33.882;151.134;2023-08-01T00:21:17;16.60;99.90
16392;DHT22;8305;-33.882;151.134;2023-08-01T00:23:48;16.70;99.90
16392;DHT22;8305;-33.882;151.134;2023-08-01T00:26:19;16.80;99.90
16392;DHT22;8305;-33.882;151.134;2023-08-01T00:28:52;16.80;99.90
16392;DHT22;8305;-33.882;151.134;2023-08-01T00:31:24;16.80;99.90
16392;DHT22;8305;-33.882;151.134;2023-08-01T00:33:55;16.90;99.90
16392;DHT22;8305;-33.882;151.134;2023-08-01T00:36:26;17.10;99.90
16392;DHT22;8305;-33.882;151.134;2023-08-01T00:38:58;17.20;99.90
16392;DHT22;8305;-33.882;151.134;2023-08-01T00:41:29;17.30;99.90
16392;DHT22;8305;-33.882;151.134;2023-08-01T00:44:02;17.50;99.90
16392;DHT22;8305;-33.882;151.134;2023-08-01T00:46:34;17.60;99.90
16392;DHT22;8305;-33.882;151.134;2023-08-01T00:49:05;17.70;99.90
16392;DHT22;8305;-33.882;151.134;2023-08-01T00:51:36;17.80;99.90
16392;DHT22;8305;-33.882;151.134;2023-08-01T00:54:08;17.70;99.90
16392;DHT22;8305;-33.882;151.134;2023-08-01T00:56:39;17.70;99.90
16392;DHT22;8305;-33.882;151.134;2023-08-01T00:59:13;17.80;99.90
16392;DHT22;8305;-33.882;151.134;2023-08-01T01:01:44;17.80;99.90
16392;DHT22;8305;-33.882;151.134;2023-08-01T01:04:15;18.00;99.90
16392;DHT22;8305;-33.882;151.134;2023-08-01T01:06:47;18.10;99.90
16392;DHT22;8305;-33.882;151.134;2023-08-01T01:09:20;18.20;99.90
16392;DHT22;8305;-33.882;151.134;2023-08-01T01:11:51;18.20;99.90
16392;DHT22;8305;-33.882;151.134;2023-08-01T01:14:24;18.30;99.90
16392;DHT22;8305;-33.882;151.134;2023-08-01T01:16:55;18.40;99.90
16392;DHT22;8305;-33.882;151.134;2023-08-01T01:19:27;18.50;99.90
16392;DHT22;8305;-33.882;151.134;2023-08-01T01:22:00;18.60;99.90
16392;DHT22;8305;-33.882;151.134;2023-08-01T01:24:33;18.70;99.90
16392;DHT22;8305;-33.882;151.134;2023-08-01T01:27:06;18.70;99.90
16392;DHT22;8305;-33.882;151.134;2023-08-01T01:29:38;18.80;99.90
16392;DHT22;8305;-33.882;151.134;2023-08-01T01:32:10;18.90;99.90
16392;DHT22;8305;-33.882;151.134;2023-08-01T01:34:42;19.10;99.90
16392;DHT22;8305;-33.882;151.134;2023-08-01T01:37:15;19.20;99.90
16392;DHT22;8305;-33.882;151.134;2023-08-01T01:39:46;19.30;99.90
16392;DHT22;8305;-33.882;151.134;2023-08-01T01:42:17;19.40;99.90
16392;DHT22;8305;-33.882;151.134;2023-08-01T01:44:48;19.50;99.90
16392;DHT22;8305;-33.882;151.134;2023-08-01T01:47:19;19.50;99.90
16392;DHT22;8305;-33.882;151.134;2023-08-01T01:49:50;19.60;99.90
16392;DHT22;8305;-33.882;151.134;2023-08-01T01:52:23;19.70;99.90
16392;DHT22;8305;-33.882;151.134;2023-08-01T01:54:54;19.70;99.90
16392;DHT22;8305;-33.882;151.134;2023-08-01T01:57:25;19.80;99.90
16392;DHT22;8305;-33.882;151.134;2023-08-01T01:59:57;19.80;99.90
16392;DHT22;8305;-33.882;151.134;2023-08-01T02:02:28;19.90;99.90
16392;DHT22;8305;-33.882;151.134;2023-08-01T02:04:59;19.90;99.90
16392;DHT22;8305;-33.882;151.134;2023-08-01T02:07:32;19.90;99.90
16392;DHT22;8305;-33.882;151.134;2023-08-01T02:10:03;20.00;99.90
16392;DHT22;8305;-33.882;151.134;2023-08-01T02:12:34;20.00;99.90
16392;DHT22;8305;-33.882;151.134;2023-08-01T02:15:06;20.10;99.90
16392;DHT22;8305;-33.882;151.134;2023-08-01T02:17:37;20.20;99.90
16392;DHT22;8305;-33.882;151.134;2023-08-01T02:20:09;20.20;99.90
16392;DHT22;8305;-33.882;151.134;2023-08-01T02:22:42;20.30;99.90
16392;DHT22;8305;-33.882;151.134;2023-08-01T02:25:13;20.50;99.90
16392;DHT22;8305;-33.882;151.134;2023-08-01T02:27:44;20.50;99.90
16392;DHT22;8305;-33.882;151.134;2023-08-01T02:30:15;20.60;99.90
16392;DHT22;8305;-33.882;151.134;2023-08-01T02:32:46;20.70;99.90
16392;DHT22;8305;-33.882;151.134;2023-08-01T02:35:17;20.80;99.90
16392;DHT22;8305;-33.882;151.134;2023-08-01T02:37:50;20.90;99.90
16392;DHT22;8305;-33.882;151.134;2023-08-01T02:40:21;20.90;99.90
16392;DHT22;8305;-33.882;151.134;2023-08-01T02:42:54;20.90;99.90
16392;DHT22;8305;-33.882;151.134;2023-08-01T02:45:25;20.80;99.90
16392;DHT22;8305;-33.882;151.134;2023-08-01T02:47:56;20.70;99.90
16392;DHT22;8305;-33.882;151.134;2023-08-01T02:50:27;20.70;99.90
16392;DHT22;8305;-33.882;151.134;2023-08-01T02:53:00;20.70;99.90
16392;DHT22;8305;-33.882;151.134;2023-08-01T02:55:31;20.70;99.90
16392;DHT22;8305;-33.882;151.134;2023-08-01T02:58:02;20.80;99.90
16392;DHT22;8305;-33.882;151.134;2023-08-01T03:00:33;20.90;99.90
16392;DHT22;8305;-33.882;151.134;2023-08-01T03:03:04;20.90;99.90
16392;DHT22;8305;-33.882;151.134;2023-08-01T03:05:37;21.00;99.90
16392;DHT22;8305;-33.882;151.134;2023-08-01T03:08:10;21.00;99.90
16392;DHT22;8305;-33.882;151.134;2023-08-01T03:10:41;21.00;99.90
16392;DHT22;8305;-33.882;151.134;2023-08-01T03:13:12;21.10;99.90
16392;DHT22;8305;-33.882;151.134;2023-08-01T03:15:43;21.10;99.90
16392;DHT22;8305;-33.882;151.134;2023-08-01T03:18:14;21.10;99.90
16392;DHT22;8305;-33.882;151.134;2023-08-01T03:20:45;21.20;99.90
16392;DHT22;8305;-33.882;151.134;2023-08-01T03:23:18;21.10;99.90
16392;DHT22;8305;-33.882;151.134;2023-08-01T03:25:50;21.10;99.90
16392;DHT22;8305;-33.882;151.134;2023-08-01T03:28:21;21.20;99.90
16392;DHT22;8305;-33.882;151.134;2023-08-01T03:30:52;21.10;99.90
16392;DHT22;8305;-33.882;151.134;2023-08-01T03:33:23;21.10;99.90
16392;DHT22;8305;-33.882;151.134;2023-08-01T03:35:54;21.20;99.90
16392;DHT22;8305;-33.882;151.134;2023-08-01T03:38:27;21.10;99.90
16392;DHT22;8305;-33.882;151.134;2023-08-01T03:40:59;21.10;99.90
16392;DHT22;8305;-33.882;151.134;2023-08-01T03:43:32;21.20;99.90
16392;DHT22;8305;-33.882;151.134;2023-08-01T03:46:03;21.20;99.90
16392;DHT22;8305;-33.882;151.134;2023-08-01T03:48:34;21.20;99.90
16392;DHT22;8305;-33.882;151.134;2023-08-01T03:51:05;21.30;99.90
16392;DHT22;8305;-33.882;151.134;2023-08-01T03:53:38;21.30;99.90
16392;DHT22;8305;-33.882;151.134;2023-08-01T03:56:10;21.20;99.90
16392;DHT22;8305;-33.882;151.134;2023-08-01T03:58:41;21.20;99.90
16392;DHT22;8305;-33.882;151.134;2023-08-01T04:01:12;21.10;99.90
16392;DHT22;8305;-33.882;151.134;2023-08-01T04:03:43;21.00;99.90
16392;DHT22;8305;-33.882;151.134;2023-08-01T04:06:14;21.00;99.90
16392;DHT22;8305;-33.882;151.134;2023-08-01T04:08:47;21.00;99.90
16392;DHT22;8305;-33.882;151.134;2023-08-01T04:11:19;21.10;99.90
16392;DHT22;8305;-33.882;151.134;2023-08-01T04:13:50;21.00;99.90
16392;DHT22;8305;-33.882;151.134;2023-08-01T04:16:21;21.00;99.90
16392;DHT22;8305;-33.882;151.134;2023-08-01T04:18:53;21.00;99.90
16392;DHT22;8305;-33.882;151.134;2023-08-01T04:21:24;21.00;99.90
16392;DHT22;8305;-33.882;151.134;2023-08-01T04:23:57;21.00;99.90
16392;DHT22;8305;-33.882;151.134;2023-08-01T04:26:28;20.90;99.90
16392;DHT22;8305;-33.882;151.134;2023-08-01T04:28:59;20.90;99.90
16392;DHT22;8305;-33.882;151.134;2023-08-01T04:31:30;20.80;99.90
16392;DHT22;8305;-33.882;151.134;2023-08-01T04:34:01;20.70;99.90
16392;DHT22;8305;-33.882;151.134;2023-08-01T04:36:32;20.60;99.90
16392;DHT22;8305;-33.882;151.134;2023-08-01T04:39:05;20.70;99.90
16392;DHT22;8305;-33.882;151.134;2023-08-01T04:41:36;20.60;99.90
16392;DHT22;8305;-33.882;151.134;2023-08-01T04:44:07;20.60;99.90
16392;DHT22;8305;-33.882;151.134;2023-08-01T04:46:38;20.60;99.90
16392;DHT22;8305;-33.882;151.134;2023-08-01T04:49:09;20.60;99.90
16392;DHT22;8305;-33.882;151.134;2023-08-01T04:51:41;20.50;99.90
16392;DHT22;8305;-33.882;151.134;2023-08-01T04:54:14;20.60;99.90
16392;DHT22;8305;-33.882;151.134;2023-08-01T04:56:45;20.60;99.90
16392;DHT22;8305;-33.882;151.134;2023-08-01T04:59:16;20.50;99.90
16392;DHT22;8305;-33.882;151.134;2023-08-01T05:01:47;20.50;99.90
16392;DHT22;8305;-33.882;151.134;2023-08-01T05:04:18;20.40;99.90
16392;DHT22;8305;-33.882;151.134;2023-08-01T05:06:49;20.40;99.90
16392;DHT22;8305;-33.882;151.134;2023-08-01T05:09:22;20.40;99.90
16392;DHT22;8305;-33.882;151.134;2023-08-01T05:11:53;20.40;99.90
16392;DHT22;8305;-33.882;151.134;2023-08-01T05:14:24;20.30;99.90
16392;DHT22;8305;-33.882;151.134;2023-08-01T05:16:55;20.40;99.90
16392;DHT22;8305;-33.882;151.134;2023-08-01T05:19:26;20.40;99.90
16392;DHT22;8305;-33.882;151.134;2023-08-01T05:21:57;20.40;99.90
16392;DHT22;8305;-33.882;151.134;2023-08-01T05:24:30;20.40;99.90
16392;DHT22;8305;-33.882;151.134;2023-08-01T05:27:01;20.40;99.90
16392;DHT22;8305;-33.882;151.134;2023-08-01T05:29:32;20.40;99.90
16392;DHT22;8305;-33.882;151.134;2023-08-01T05:32:04;20.40;99.90
16392;DHT22;8305;-33.882;151.134;2023-08-01T05:34:35;20.40;99.90
16392;DHT22;8305;-33.882;151.134;2023-08-01T05:37:07;20.40;99.90
16392;DHT22;8305;-33.882;151.134;2023-08-01T05:39:40;20.40;99.90
16392;DHT22;8305;-33.882;151.134;2023-08-01T05:42:11;20.30;99.90
16392;DHT22;8305;-33.882;151.134;2023-08-01T05:44:42;20.30;99.90
16392;DHT22;8305;-33.882;151.134;2023-08-01T05:47:13;20.30;99.90
16392;DHT22;8305;-33.882;151.134;2023-08-01T05:49:44;20.20;99.90
16392;DHT22;8305;-33.882;151.134;2023-08-01T05:52:15;20.10;99.90
16392;DHT22;8305;-33.882;151.134;2023-08-01T05:54:48;20.10;99.90
16392;DHT22;8305;-33.882;151.134;2023-08-01T05:57:19;20.10;99.90
16392;DHT22;8305;-33.882;151.134;2023-08-01T05:59:50;20.00;99.90
16392;DHT22;8305;-33.882;151.134;2023-08-01T06:02:21;19.90;99.90
16392;DHT22;8305;-33.882;151.134;2023-08-01T06:04:52;19.80;99.90
16392;DHT22;8305;-33.882;151.134;2023-08-01T06:07:23;19.80;99.90
16392;DHT22;8305;-33.882;151.134;2023-08-01T06:09:56;19.70;99.90
16392;DHT22;8305;-33.882;151.134;2023-08-01T06:12:28;19.60;99.90
16392;DHT22;8305;-33.882;151.134;2023-08-01T06:14:59;19.60;99.90
16392;DHT22;8305;-33.882;151.134;2023-08-01T06:17:30;19.50;99.90
16392;DHT22;8305;-33.882;151.134;2023-08-01T06:20:01;19.50;99.90
16392;DHT22;8305;-33.882;151.134;2023-08-01T06:22:33;19.50;99.90
16392;DHT22;8305;-33.882;151.134;2023-08-01T06:25:07;19.40;99.90
16392;DHT22;8305;-33.882;151.134;2023-08-01T06:27:38;19.30;99.90
16392;DHT22;8305;-33.882;151.134;2023-08-01T06:30:10;19.30;99.90
16392;DHT22;8305;-33.882;151.134;2023-08-01T06:32:41;19.20;99.90
16392;DHT22;8305;-33.882;151.134;2023-08-01T06:35:12;19.10;99.90
16392;DHT22;8305;-33.882;151.134;2023-08-01T06:37:43;19.10;99.90
16392;DHT22;8305;-33.882;151.134;2023-08-01T06:40:16;19.00;99.90
16392;DHT22;8305;-33.882;151.134;2023-08-01T06:42:47;18.90;99.90
16392;DHT22;8305;-33.882;151.134;2023-08-01T06:45:18;18.90;99.90
16392;DHT22;8305;-33.882;151.134;2023-08-01T06:47:49;18.80;99.90
16392;DHT22;8305;-33.882;151.134;2023-08-01T06:50:21;18.80;99.90
16392;DHT22;8305;-33.882;151.134;2023-08-01T06:52:52;18.70;99.90
16392;DHT22;8305;-33.882;151.134;2023-08-01T06:55:25;18.50;99.90
16392;DHT22;8305;-33.882;151.134;2023-08-01T06:57:56;18.50;99.90
16392;DHT22;8305;-33.882;151.134;2023-08-01T07:00:27;18.40;99.90
16392;DHT22;8305;-33.882;151.134;2023-08-01T07:02:59;18.30;99.90
16392;DHT22;8305;-33.882;151.134;2023-08-01T07:05:30;18.20;99.90
16392;DHT22;8305;-33.882;151.134;2023-08-01T07:08:01;18.10;99.90
16392;DHT22;8305;-33.882;151.134;2023-08-01T07:10:38;18.00;99.90
16392;DHT22;8305;-33.882;151.134;2023-08-01T07:13:09;17.90;99.90
16392;DHT22;8305;-33.882;151.134;2023-08-01T07:15:40;17.80;99.90
16392;DHT22;8305;-33.882;151.134;2023-08-01T07:18:11;17.70;99.90
16392;DHT22;8305;-33.882;151.134;2023-08-01T07:20:42;17.60;99.90
16392;DHT22;8305;-33.882;151.134;2023-08-01T07:23:13;17.60;99.90
16392;DHT22;8305;-33.882;151.134;2023-08-01T07:25:46;17.50;99.90
16392;DHT22;8305;-33.882;151.134;2023-08-01T07:28:17;17.40;99.90
16392;DHT22;8305;-33.882;151.134;2023-08-01T07:30:48;17.30;99.90
16392;DHT22;8305;-33.882;151.134;2023-08-01T07:33:19;17.30;99.90
16392;DHT22;8305;-33.882;151.134;2023-08-01T07:35:49;17.20;99.90
16392;DHT22;8305;-33.882;151.134;2023-08-01T07:38:21;17.20;99.90
16392;DHT22;8305;-33.882;151.134;2023-08-01T07:40:54;17.10;99.90
16392;DHT22;8305;-33.882;151.134;2023-08-01T07:43:26;17.00;99.90
16392;DHT22;8305;-33.882;151.134;2023-08-01T07:46:00;16.90;99.90
16392;DHT22;8305;-33.882;151.134;2023-08-01T07:48:31;16.90;99.90
16392;DHT22;8305;-33.882;151.134;2023-08-01T07:51:01;16.80;99.90
16392;DHT22;8305;-33.882;151.134;2023-08-01T07:53:33;16.70;99.90
16392;DHT22;8305;-33.882;151.134;2023-08-01T07:56:06;16.70;99.90
16392;DHT22;8305;-33.882;151.134;2023-08-01T07:58:37;16.60;99.90
16392;DHT22;8305;-33.882;151.134;2023-08-01T08:01:08;16.60;99.90
16392;DHT22;8305;-33.882;151.134;2023-08-01T08:03:39;16.50;99.90
16392;DHT22;8305;-33.882;151.134;2023-08-01T08:06:09;16.40;99.90
16392;DHT22;8305;-33.882;151.134;2023-08-01T08:08:40;16.40;99.90
16392;DHT22;8305;-33.882;151.134;2023-08-01T08:11:13;16.30;99.90
16392;DHT22;8305;-33.882;151.134;2023-08-01T08:13:44;16.30;99.90
16392;DHT22;8305;-33.882;151.134;2023-08-01T08:16:14;16.20;99.90
16392;DHT22;8305;-33.882;151.134;2023-08-01T08:18:45;16.20;99.90
16392;DHT22;8305;-33.882;151.134;2023-08-01T08:21:16;16.20;99.90
16392;DHT22;8305;-33.882;151.134;2023-08-01T08:23:46;16.10;99.90
16392;DHT22;8305;-33.882;151.134;2023-08-01T08:26:19;16.10;99.90
16392;DHT22;8305;-33.882;151.134;2023-08-01T08:28:51;16.00;99.90
16392;DHT22;8305;-33.882;151.134;2023-08-01T08:31:22;16.00;99.90
16392;DHT22;8305;-33.882;151.134;2023-08-01T08:33:53;15.90;99.90
16392;DHT22;8305;-33.882;151.134;2023-08-01T08:36:24;15.90;99.90
16392;DHT22;8305;-33.882;151.134;2023-08-01T08:38:56;15.80;99.90
16392;DHT22;8305;-33.882;151.134;2023-08-01T08:41:32;15.70;99.90
16392;DHT22;8305;-33.882;151.134;2023-08-01T08:44:08;15.70;99.90
16392;DHT22;8305;-33.882;151.134;2023-08-01T08:46:43;15.60;99.90
16392;DHT22;8305;-33.882;151.134;2023-08-01T08:49:15;15.60;99.90
16392;DHT22;8305;-33.882;151.134;2023-08-01T08:51:48;15.60;99.90
16392;DHT22;8305;-33.882;151.134;2023-08-01T08:54:19;15.60;99.90
16392;DHT22;8305;-33.882;151.134;2023-08-01T08:56:52;15.60;99.90
16392;DHT22;8305;-33.882;151.134;2023-08-01T08:59:23;15.50;99.90
16392;DHT22;8305;-33.882;151.134;2023-08-01T09:01:55;15.50;99.90
16392;DHT22;8305;-33.882;151.134;2023-08-01T09:04:28;15.50;99.90
16392;DHT22;8305;-33.882;151.134;2023-08-01T09:07:02;15.50;99.90
16392;DHT22;8305;-33.882;151.134;2023-08-01T09:09:36;15.50;99.90
16392;DHT22;8305;-33.882;151.134;2023-08-01T09:12:10;15.50;99.90
16392;DHT22;8305;-33.882;151.134;2023-08-01T09:14:43;15.40;99.90
16392;DHT22;8305;-33.882;151.134;2023-08-01T09:17:14;15.40;99.90
16392;DHT22;8305;-33.882;151.134;2023-08-01T09:19:46;15.40;99.90
16392;DHT22;8305;-33.882;151.134;2023-08-01T09:22:18;15.30;99.90
16392;DHT22;8305;-33.882;151.134;2023-08-01T09:24:55;15.30;99.90
16392;DHT22;8305;-33.882;151.134;2023-08-01T09:27:34;15.20;99.90
16392;DHT22;8305;-33.882;151.134;2023-08-01T09:30:09;15.20;99.90
16392;DHT22;8305;-33.882;151.134;2023-08-01T09:32:41;15.20;99.90
16392;DHT22;8305;-33.882;151.134;2023-08-01T09:35:21;15.20;99.90
16392;DHT22;8305;-33.882;151.134;2023-08-01T09:37:52;15.10;99.90
16392;DHT22;8305;-33.882;151.134;2023-08-01T09:40:23;15.10;99.90
16392;DHT22;8305;-33.882;151.134;2023-08-01T09:43:02;15.10;99.90
16392;DHT22;8305;-33.882;151.134;2023-08-01T09:45:33;15.10;99.90
16392;DHT22;8305;-33.882;151.134;2023-08-01T09:48:04;15.10;99.90
16392;DHT22;8305;-33.882;151.134;2023-08-01T09:50:35;15.10;99.90
16392;DHT22;8305;-33.882;151.134;2023-08-01T09:53:09;15.10;99.90
16392;DHT22;8305;-33.882;151.134;2023-08-01T09:55:41;15.10;99.90
16392;DHT22;8305;-33.882;151.134;2023-08-01T09:58:18;15.00;99.90
16392;DHT22;8305;-33.882;151.134;2023-08-01T10:00:51;15.00;99.90
16392;DHT22;8305;-33.882;151.134;2023-08-01T10:03:23;15.00;99.90
16392;DHT22;8305;-33.882;151.134;2023-08-01T10:05:55;15.00;99.90
16392;DHT22;8305;-33.882;151.134;2023-08-01T10:08:26;15.00;99.90
16392;DHT22;8305;-33.882;151.134;2023-08-01T10:11:05;15.00;99.90
16392;DHT22;8305;-33.882;151.134;2023-08-01T10:13:38;15.00;99.90
16392;DHT22;8305;-33.882;151.134;2023-08-01T10:16:09;15.00;99.90
16392;DHT22;8305;-33.882;151.134;2023-08-01T10:18:40;15.00;99.90
16392;DHT22;8305;-33.882;151.134;2023-08-01T10:21:14;14.90;99.90
16392;DHT22;8305;-33.882;151.134;2023-08-01T10:23:47;14.90;99.90
16392;DHT22;8305;-33.882;151.134;2023-08-01T10:26:19;14.90;99.90
16392;DHT22;8305;-33.882;151.134;2023-08-01T10:28:54;14.90;99.90
16392;DHT22;8305;-33.882;151.134;2023-08-01T10:31:26;14.90;99.90
16392;DHT22;8305;-33.882;151.134;2023-08-01T10:34:05;14.80;99.90
16392;DHT22;8305;-33.882;151.134;2023-08-01T10:36:37;14.80;99.90
16392;DHT22;8305;-33.882;151.134;2023-08-01T10:39:08;14.80;99.90
16392;DHT22;8305;-33.882;151.134;2023-08-01T10:41:39;14.80;99.90
16392;DHT22;8305;-33.882;151.134;2023-08-01T10:44:12;14.70;99.90
16392;DHT22;8305;-33.882;151.134;2023-08-01T10:46:49;14.70;99.90
16392;DHT22;8305;-33.882;151.134;2023-08-01T10:49:21;14.70;99.90
16392;DHT22;8305;-33.882;151.134;2023-08-01T10:52:02;14.60;99.90
16392;DHT22;8305;-33.882;151.134;2023-08-01T10:54:34;14.60;99.90
16392;DHT22;8305;-33.882;151.134;2023-08-01T10:57:07;14.60;99.90
16392;DHT22;8305;-33.882;151.134;2023-08-01T10:59:40;14.60;99.90
16392;DHT22;8305;-33.882;151.134;2023-08-01T11:02:11;14.50;99.90
16392;DHT22;8305;-33.882;151.134;2023-08-01T11:04:42;14.50;99.90
16392;DHT22;8305;-33.882;151.134;2023-08-01T11:07:13;14.50;99.90
16392;DHT22;8305;-33.882;151.134;2023-08-01T11:09:44;14.40;99.90
16392;DHT22;8305;-33.882;151.134;2023-08-01T11:12:14;14.40;99.90
16392;DHT22;8305;-33.882;151.134;2023-08-01T11:14:47;14.40;99.90
16392;DHT22;8305;-33.882;151.134;2023-08-01T11:17:18;14.40;99.90
16392;DHT22;8305;-33.882;151.134;2023-08-01T11:19:48;14.30;99.90
16392;DHT22;8305;-33.882;151.134;2023-08-01T11:22:19;14.30;99.90
16392;DHT22;8305;-33.882;151.134;2023-08-01T11:24:51;14.30;99.90
16392;DHT22;8305;-33.882;151.134;2023-08-01T11:27:22;14.30;99.90
16392;DHT22;8305;-33.882;151.134;2023-08-01T11:29:55;14.20;99.90
16392;DHT22;8305;-33.882;151.134;2023-08-01T11:32:34;14.20;99.90
16392;DHT22;8305;-33.882;151.134;2023-08-01T11:35:06;14.20;99.90
16392;DHT22;8305;-33.882;151.134;2023-08-01T11:37:37;14.20;99.90
16392;DHT22;8305;-33.882;151.134;2023-08-01T11:40:09;14.10;99.90
16392;DHT22;8305;-33.882;151.134;2023-08-01T11:42:40;14.10;99.90
16392;DHT22;8305;-33.882;151.134;2023-08-01T11:45:13;14.00;99.90
16392;DHT22;8305;-33.882;151.134;2023-08-01T11:47:47;14.00;99.90
16392;DHT22;8305;-33.882;151.134;2023-08-01T11:50:22;14.00;99.90
16392;DHT22;8305;-33.882;151.134;2023-08-01T11:52:53;14.00;99.90
16392;DHT22;8305;-33.882;151.134;2023-08-01T11:55:26;14.00;99.90
16392;DHT22;8305;-33.882;151.134;2023-08-01T11:57:57;14.00;99.90
16392;DHT22;8305;-33.882;151.134;2023-08-01T12:00:30;13.90;99.90
16392;DHT22;8305;-33.882;151.134;2023-08-01T12:03:08;14.00;99.90
16392;DHT22;8305;-33.882;151.134;2023-08-01T12:05:40;13.90;99.90
16392;DHT22;8305;-33.882;151.134;2023-08-01T12:08:14;13.90;99.90
16392;DHT22;8305;-33.882;151.134;2023-08-01T12:10:46;13.90;99.90
16392;DHT22;8305;-33.882;151.134;2023-08-01T12:13:24;13.90;99.90
16392;DHT22;8305;-33.882;151.134;2023-08-01T12:15:57;13.90;99.90
16392;DHT22;8305;-33.882;151.134;2023-08-01T12:18:28;13.90;99.90
16392;DHT22;8305;-33.882;151.134;2023-08-01T12:20:59;13.90;99.90
16392;DHT22;8305;-33.882;151.134;2023-08-01T12:23:33;13.90;99.90
16392;DHT22;8305;-33.882;151.134;2023-08-01T12:26:03;13.80;99.90
16392;DHT22;8305;-33.882;151.134;2023-08-01T12:28:34;13.80;99.90
16392;DHT22;8305;-33.882;151.134;2023-08-01T12:31:07;13.80;99.90
16392;DHT22;8305;-33.882;151.134;2023-08-01T12:33:38;13.80;99.90
16392;DHT22;8305;-33.882;151.134;2023-08-01T12:36:08;13.80;99.90
16392;DHT22;8305;-33.882;151.134;2023-08-01T12:38:39;13.80;99.90
16392;DHT22;8305;-33.882;151.134;2023-08-01T12:41:10;13.70;99.90
16392;DHT22;8305;-33.882;151.134;2023-08-01T12:43:41;13.70;99.90
16392;DHT22;8305;-33.882;151.134;2023-08-01T12:46:13;13.70;99.90
16392;DHT22;8305;-33.882;151.134;2023-08-01T12:48:44;13.70;99.90
16392;DHT22;8305;-33.882;151.134;2023-08-01T12:51:15;13.70;99.90
16392;DHT22;8305;-33.882;151.134;2023-08-01T12:53:45;13.60;99.90
16392;DHT22;8305;-33.882;151.134;2023-08-01T12:56:16;13.60;99.90
16392;DHT22;8305;-33.882;151.134;2023-08-01T12:58:47;13.50;99.90
16392;DHT22;8305;-33.882;151.134;2023-08-01T13:01:19;13.50;99.90
16392;DHT22;8305;-33.882;151.134;2023-08-01T13:03:50;13.50;99.90
16392;DHT22;8305;-33.882;151.134;2023-08-01T13:06:21;13.50;99.90
16392;DHT22;8305;-33.882;151.134;2023-08-01T13:08:52;13.50;99.90
16392;DHT22;8305;-33.882;151.134;2023-08-01T13:11:22;13.40;99.90
16392;DHT22;8305;-33.882;151.134;2023-08-01T13:13:53;13.40;99.90
16392;DHT22;8305;-33.882;151.134;2023-08-01T13:16:26;13.40;99.90
16392;DHT22;8305;-33.882;151.134;2023-08-01T13:18:56;13.40;99.90
16392;DHT22;8305;-33.882;151.134;2023-08-01T13:21:27;13.40;99.90
16392;DHT22;8305;-33.882;151.134;2023-08-01T13:23:58;13.40;99.90
16392;DHT22;8305;-33.882;151.134;2023-08-01T13:26:32;13.40;99.90
16392;DHT22;8305;-33.882;151.134;2023-08-01T13:29:03;13.40;99.90
16392;DHT22;8305;-33.882;151.134;2023-08-01T13:31:35;13.40;99.90
16392;DHT22;8305;-33.882;151.134;2023-08-01T13:34:07;13.40;99.90
16392;DHT22;8305;-33.882;151.134;2023-08-01T13:36:37;13.40;99.90
16392;DHT22;8305;-33.882;151.134;2023-08-01T13:39:08;13.40;99.90
16392;DHT22;8305;-33.882;151.134;2023-08-01T13:41:39;13.40;99.90
16392;DHT22;8305;-33.882;151.134;2023-08-01T13:44:10;13.40;99.90
16392;DHT22;8305;-33.882;151.134;2023-08-01T13:46:42;13.40;99.90
16392;DHT22;8305;-33.882;151.134;2023-08-01T13:49:13;13.30;99.90
16392;DHT22;8305;-33.882;151.134;2023-08-01T13:51:44;13.30;99.90
16392;DHT22;8305;-33.882;151.134;2023-08-01T13:54:15;13.20;99.90
16392;DHT22;8305;-33.882;151.134;2023-08-01T13:56:45;13.20;99.90
16392;DHT22;8305;-33.882;151.134;2023-08-01T13:59:16;13.20;99.90
16392;DHT22;8305;-33.882;151.134;2023-08-01T14:01:50;13.20;99.90
16392;DHT22;8305;-33.882;151.134;2023-08-01T14:04:21;13.20;99.90
16392;DHT22;8305;-33.882;151.134;2023-08-01T14:06:52;13.20;99.90
16392;DHT22;8305;-33.882;151.134;2023-08-01T14:09:23;13.20;99.90
16392;DHT22;8305;-33.882;151.134;2023-08-01T14:11:53;13.20;99.90
16392;DHT22;8305;-33.882;151.134;2023-08-01T14:14:24;13.20;99.90
16392;DHT22;8305;-33.882;151.134;2023-08-01T14:16:57;13.10;99.90
16392;DHT22;8305;-33.882;151.134;2023-08-01T14:19:28;13.10;99.90
16392;DHT22;8305;-33.882;151.134;2023-08-01T14:21:59;13.10;99.90
16392;DHT22;8305;-33.882;151.134;2023-08-01T14:24:30;13.10;99.90
16392;DHT22;8305;-33.882;151.134;2023-08-01T14:27:01;13.10;99.90
16392;DHT22;8305;-33.882;151.134;2023-08-01T14:29:32;13.10;99.90
16392;DHT22;8305;-33.882;151.134;2023-08-01T14:32:05;13.10;99.90
16392;DHT22;8305;-33.882;151.134;2023-08-01T14:34:36;13.10;99.90
16392;DHT22;8305;-33.882;151.134;2023-08-01T14:37:07;13.10;99.90
16392;DHT22;8305;-33.882;151.134;2023-08-01T14:39:37;13.10;99.90
16392;DHT22;8305;-33.882;151.134;2023-08-01T14:42:08;13.10;99.90
16392;DHT22;8305;-33.882;151.134;2023-08-01T14:44:39;13.10;99.90
16392;DHT22;8305;-33.882;151.134;2023-08-01T14:47:13;13.10;99.90
16392;DHT22;8305;-33.882;151.134;2023-08-01T14:49:45;13.10;99.90
16392;DHT22;8305;-33.882;151.134;2023-08-01T14:52:16;13.10;99.90
16392;DHT22;8305;-33.882;151.134;2023-08-01T14:54:46;13.00;99.90
16392;DHT22;8305;-33.882;151.134;2023-08-01T14:57:17;13.00;99.90
16392;DHT22;8305;-33.882;151.134;2023-08-01T14:59:48;13.00;99.90
16392;DHT22;8305;-33.882;151.134;2023-08-01T15:02:21;13.00;99.90
16392;DHT22;8305;-33.882;151.134;2023-08-01T15:04:52;13.00;99.90
16392;DHT22;8305;-33.882;151.134;2023-08-01T15:07:23;13.00;99.90
16392;DHT22;8305;-33.882;151.134;2023-08-01T15:09:54;12.90;99.90
16392;DHT22;8305;-33.882;151.134;2023-08-01T15:12:25;13.00;99.90
16392;DHT22;8305;-33.882;151.134;2023-08-01T15:14:56;13.00;99.90
16392;DHT22;8305;-33.882;151.134;2023-08-01T15:17:28;13.00;99.90
16392;DHT22;8305;-33.882;151.134;2023-08-01T15:19:59;12.90;99.90
16392;DHT22;8305;-33.882;151.134;2023-08-01T15:22:30;12.90;99.90
16392;DHT22;8305;-33.882;151.134;2023-08-01T15:25:01;12.80;99.90
16392;DHT22;8305;-33.882;151.134;2023-08-01T15:27:32;12.80;99.90
16392;DHT22;8305;-33.882;151.134;2023-08-01T15:30:03;12.80;99.90